createdAt,value
2023-09-21T00:00:28.964Z,38.22
2023-09-21T00:01:03.826Z,41.10
2023-09-21T00:01:39.798Z,39.80
2023-09-21T00:02:14.287Z,30.90
2023-09-21T00:02:51.087Z,32.20
2023-09-21T00:03:23.595Z,27.33
2023-09-21T00:03:56.776Z,10.07
2023-09-21T00:04:29.404Z,27.63
2023-09-21T00:05:01.785Z,23.97
2023-09-21T00:05:34.327Z,12.95
2023-09-21T00:06:06.994Z,19.60
2023-09-21T00:06:39.611Z,14.85
2023-09-21T00:07:11.868Z,21.92
2023-09-21T00:07:44.190Z,25.35
2023-09-21T00:08:17.712Z,14.95
2023-09-21T00:08:51.484Z,23.23
2023-09-21T00:09:25.458Z,18.63
2023-09-21T00:09:59.153Z,16.23
2023-09-21T00:10:33.545Z,14.10
2023-09-21T00:11:06.381Z,13.35
2023-09-21T00:11:41.572Z,6.50
2023-09-21T00:12:13.918Z,17.73
2023-09-21T00:12:46.668Z,11.00
2023-09-21T00:13:19.407Z,11.30
2023-09-21T00:13:51.905Z,18.35
2023-09-21T00:14:24.289Z,8.85
2023-09-21T00:14:56.695Z,10.90
2023-09-21T00:15:30.647Z,8.93
2023-09-21T00:16:03.547Z,7.77
2023-09-21T00:16:36.463Z,7.80
2023-09-21T00:17:09.947Z,6.32
2023-09-21T00:17:42.472Z,9.50
2023-09-21T00:18:15.351Z,7.53
2023-09-21T00:18:48.377Z,6.90
2023-09-21T00:19:24.010Z,7.97
2023-09-21T00:19:56.318Z,12.45
2023-09-21T00:20:37.532Z,24.15
2023-09-21T00:21:10.318Z,14.68
2023-09-21T00:21:45.190Z,29.73
2023-09-21T00:22:17.648Z,21.05
2023-09-21T00:22:57.269Z,27.55
2023-09-21T00:23:32.879Z,25.40
2023-09-21T00:24:06.227Z,24.90
2023-09-21T00:24:39.023Z,35.28
2023-09-21T00:25:11.624Z,32.55
2023-09-21T00:25:44.307Z,28.20
2023-09-21T00:26:16.738Z,28.08
2023-09-21T00:26:52.926Z,35.80
2023-09-21T00:27:29.984Z,18.33
2023-09-21T00:28:06.219Z,17.83
2023-09-21T00:28:38.668Z,7.20
2023-09-21T00:29:12.297Z,6.13
2023-09-21T00:29:45.330Z,5.88
2023-09-21T00:30:17.788Z,4.65
2023-09-21T00:30:54.418Z,4.82
2023-09-21T00:31:26.789Z,4.88
2023-09-21T00:31:59.536Z,5.45
2023-09-21T00:32:32.000Z,35.55
2023-09-21T00:33:08.660Z,67.40
2023-09-21T00:33:41.841Z,63.03
2023-09-21T00:34:14.442Z,77.07
2023-09-21T00:34:47.749Z,82.93
2023-09-21T00:35:20.834Z,49.08
2023-09-21T00:35:53.166Z,41.13
2023-09-21T00:36:25.993Z,68.78
2023-09-21T00:36:58.702Z,77.43
2023-09-21T00:37:38.248Z,72.07
2023-09-21T00:38:11.818Z,66.57
2023-09-21T00:38:44.782Z,56.07
2023-09-21T00:39:18.692Z,74.00
2023-09-21T00:39:53.757Z,54.78
2023-09-21T00:40:26.533Z,52.00
2023-09-21T00:40:59.996Z,57.22
2023-09-21T00:41:33.006Z,55.80
2023-09-21T00:42:05.413Z,50.13
2023-09-21T00:42:37.744Z,45.67
2023-09-21T00:43:11.574Z,55.92
2023-09-21T00:43:43.900Z,52.60
2023-09-21T00:44:16.450Z,50.23
2023-09-21T00:44:48.878Z,46.78
2023-09-21T00:45:24.129Z,66.00
2023-09-21T00:45:59.064Z,59.75
2023-09-21T00:46:31.530Z,57.28
2023-09-21T00:47:05.099Z,47.97
2023-09-21T00:47:40.687Z,55.20
2023-09-21T00:48:22.901Z,60.58
2023-09-21T00:48:55.463Z,65.00
2023-09-21T00:49:29.517Z,61.50
2023-09-21T00:50:08.011Z,60.47
2023-09-21T00:50:45.544Z,66.10
2023-09-21T00:51:18.322Z,50.75
2023-09-21T00:51:52.045Z,75.82
2023-09-21T00:52:25.835Z,82.15
2023-09-21T00:52:58.450Z,79.75
2023-09-21T00:53:30.845Z,75.50
2023-09-21T00:54:11.335Z,72.80
2023-09-21T00:54:43.755Z,72.95
2023-09-21T00:55:30.811Z,80.28
2023-09-21T00:56:05.685Z,47.43
2023-09-21T00:56:40.617Z,61.20
2023-09-21T00:57:14.187Z,70.40
2023-09-21T00:57:46.977Z,60.70
2023-09-21T00:58:20.620Z,65.63
2023-09-21T00:58:55.465Z,56.47
2023-09-21T00:59:28.034Z,61.20
2023-09-21T01:00:01.011Z,60.88
2023-09-21T01:00:34.028Z,59.22
2023-09-21T01:01:07.181Z,57.53
2023-09-21T01:01:41.118Z,52.23
2023-09-21T01:02:13.675Z,53.15
2023-09-21T01:02:47.804Z,55.33
2023-09-21T01:03:20.963Z,71.15
2023-09-21T01:03:57.487Z,61.95
2023-09-21T01:04:30.341Z,73.82
2023-09-21T01:05:02.730Z,75.60
2023-09-21T01:05:35.759Z,52.75
2023-09-21T01:06:09.096Z,63.10
2023-09-21T01:06:43.344Z,37.85
2023-09-21T01:07:23.291Z,35.50
2023-09-21T01:07:57.684Z,50.85
2023-09-21T01:08:30.372Z,63.17
2023-09-21T01:09:05.214Z,73.47
2023-09-21T01:09:37.550Z,69.72
2023-09-21T01:10:13.008Z,64.30
2023-09-21T01:10:50.384Z,53.20
2023-09-21T01:11:22.897Z,40.20
2023-09-21T01:11:55.326Z,19.20
2023-09-21T01:12:28.742Z,12.25
2023-09-21T01:13:01.122Z,19.93
2023-09-21T01:13:37.025Z,22.10
2023-09-21T01:14:09.457Z,19.77
2023-09-21T01:14:42.854Z,6.15
2023-09-21T01:15:15.526Z,7.63
2023-09-21T01:16:02.058Z,6.75
2023-09-21T01:16:34.548Z,13.18
2023-09-21T01:17:08.394Z,21.33
2023-09-21T01:17:42.729Z,24.58
2023-09-21T01:18:17.852Z,13.90
2023-09-21T01:18:54.593Z,43.67
2023-09-21T01:19:27.079Z,25.70
2023-09-21T01:19:59.456Z,25.80
2023-09-21T01:20:33.942Z,52.03
2023-09-21T01:21:08.591Z,42.00
2023-09-21T01:21:43.796Z,31.92
2023-09-21T01:22:16.470Z,35.17
2023-09-21T01:22:53.021Z,29.40
2023-09-21T01:23:33.569Z,37.00
2023-09-21T01:24:06.339Z,37.28
2023-09-21T01:24:40.301Z,38.70
2023-09-21T01:25:16.094Z,27.05
2023-09-21T01:25:51.973Z,34.13
2023-09-21T01:26:24.375Z,42.25
2023-09-21T01:26:56.758Z,18.75
2023-09-21T01:27:29.288Z,40.97
2023-09-21T01:28:01.713Z,48.63
2023-09-21T01:28:34.102Z,50.47
2023-09-21T01:29:06.749Z,40.80
2023-09-21T01:29:39.066Z,47.67
2023-09-21T01:30:13.559Z,69.47
2023-09-21T01:30:46.146Z,69.68
2023-09-21T01:31:19.225Z,72.07
2023-09-21T01:31:51.910Z,64.85
2023-09-21T01:32:25.282Z,48.15
2023-09-21T01:32:57.787Z,65.97
2023-09-21T01:33:30.308Z,69.82
2023-09-21T01:34:04.774Z,69.43
2023-09-21T01:34:38.927Z,67.60
2023-09-21T01:35:11.632Z,61.85
2023-09-21T01:35:44.828Z,38.40
2023-09-21T01:36:18.124Z,53.53
2023-09-21T01:36:51.214Z,71.10
2023-09-21T01:37:24.132Z,50.25
2023-09-21T01:37:56.431Z,73.57
2023-09-21T01:38:28.727Z,34.08
2023-09-21T01:39:01.123Z,20.50
2023-09-21T01:39:33.498Z,22.77
2023-09-21T01:40:18.240Z,11.80
2023-09-21T01:40:50.700Z,13.10
2023-09-21T01:41:23.147Z,12.70
2023-09-21T01:41:55.712Z,6.30
2023-09-21T01:42:28.064Z,5.68
2023-09-21T01:43:00.898Z,6.03
2023-09-21T01:43:34.409Z,6.47
2023-09-21T01:44:07.558Z,11.07
2023-09-21T01:44:40.114Z,7.85
2023-09-21T01:45:16.076Z,20.35
2023-09-21T01:45:50.358Z,12.18
2023-09-21T01:46:23.182Z,9.52
2023-09-21T01:46:57.021Z,7.77
2023-09-21T01:47:29.451Z,24.23
2023-09-21T01:48:02.809Z,15.13
2023-09-21T01:48:35.250Z,7.07
2023-09-21T01:49:07.624Z,6.25
2023-09-21T01:49:40.145Z,7.28
2023-09-21T01:50:16.875Z,14.23
2023-09-21T01:50:50.221Z,32.03
2023-09-21T01:51:22.697Z,26.98
2023-09-21T01:51:55.262Z,25.23
2023-09-21T01:52:28.980Z,23.20
2023-09-21T01:53:01.527Z,24.55
2023-09-21T01:53:34.294Z,22.77
2023-09-21T01:54:08.406Z,22.17
2023-09-21T01:54:40.990Z,20.75
2023-09-21T01:55:13.443Z,16.38
2023-09-21T01:55:48.676Z,11.60
2023-09-21T01:56:22.804Z,24.85
2023-09-21T01:56:55.692Z,30.17
2023-09-21T01:57:29.084Z,29.48
2023-09-21T01:58:01.435Z,33.37
2023-09-21T01:58:34.506Z,34.67
2023-09-21T01:59:07.078Z,23.58
2023-09-21T01:59:39.634Z,28.08
2023-09-21T02:00:23.380Z,24.90
2023-09-21T02:00:56.062Z,59.45
2023-09-21T02:01:28.438Z,78.30
2023-09-21T02:02:01.278Z,83.85
2023-09-21T02:02:36.288Z,81.00
2023-09-21T02:03:10.518Z,63.60
2023-09-21T02:03:43.079Z,80.50
2023-09-21T02:04:15.575Z,80.18
2023-09-21T02:04:49.235Z,68.43
2023-09-21T02:05:22.031Z,37.83
2023-09-21T02:05:54.377Z,28.23
2023-09-21T02:06:26.950Z,31.65
2023-09-21T02:06:59.293Z,25.88
2023-09-21T02:07:31.911Z,13.35
2023-09-21T02:08:07.678Z,22.65
2023-09-21T02:08:40.164Z,25.55
2023-09-21T02:09:16.501Z,27.43
2023-09-21T02:09:49.026Z,26.50
2023-09-21T02:10:21.379Z,29.38
2023-09-21T02:10:54.345Z,26.38
2023-09-21T02:11:28.486Z,26.63
2023-09-21T02:12:00.994Z,27.70
2023-09-21T02:12:37.667Z,25.02
2023-09-21T02:13:10.082Z,22.23
2023-09-21T02:13:42.833Z,18.10
2023-09-21T02:14:15.219Z,11.05
2023-09-21T02:14:48.674Z,9.27
2023-09-21T02:15:23.113Z,9.32
2023-09-21T02:15:55.425Z,13.70
2023-09-21T02:16:28.191Z,17.67
2023-09-21T02:17:02.039Z,8.85
2023-09-21T02:17:34.463Z,6.78
2023-09-21T02:18:08.318Z,7.25
2023-09-21T02:18:41.134Z,14.30
2023-09-21T02:19:13.616Z,7.78
2023-09-21T02:19:46.178Z,6.40
2023-09-21T02:20:19.096Z,7.53
2023-09-21T02:20:55.210Z,6.53
2023-09-21T02:21:28.216Z,6.13
2023-09-21T02:22:00.540Z,5.50
2023-09-21T02:22:32.896Z,6.07
2023-09-21T02:23:06.289Z,6.22
2023-09-21T02:23:40.133Z,6.93
2023-09-21T02:24:13.586Z,10.45
2023-09-21T02:24:45.912Z,23.05
2023-09-21T02:25:19.082Z,18.05
2023-09-21T02:25:53.645Z,7.37
2023-09-21T02:26:26.556Z,6.30
2023-09-21T02:26:58.900Z,7.57
2023-09-21T02:27:35.593Z,5.95
2023-09-21T02:28:14.125Z,9.50
2023-09-21T02:28:47.041Z,14.88
2023-09-21T02:29:19.593Z,10.95
2023-09-21T02:29:52.127Z,24.13
2023-09-21T02:30:25.622Z,14.57
2023-09-21T02:30:58.162Z,23.88
2023-09-21T02:31:30.999Z,12.90
2023-09-21T02:32:05.178Z,9.30
2023-09-21T02:32:37.859Z,10.00
2023-09-21T02:33:10.914Z,12.13
2023-09-21T02:33:44.593Z,13.15
2023-09-21T02:34:17.554Z,8.50
2023-09-21T02:34:51.562Z,15.98
2023-09-21T02:35:25.989Z,10.27
2023-09-21T02:35:58.457Z,11.25
2023-09-21T02:36:32.758Z,15.68
2023-09-21T02:37:05.108Z,25.60
2023-09-21T02:37:37.458Z,10.45
2023-09-21T02:38:13.496Z,9.00
2023-09-21T02:38:46.270Z,7.63
2023-09-21T02:39:18.682Z,9.80
2023-09-21T02:39:51.033Z,10.27
2023-09-21T02:40:24.358Z,13.40
2023-09-21T02:40:57.112Z,14.52
2023-09-21T02:41:29.714Z,8.73
2023-09-21T02:42:02.096Z,10.40
2023-09-21T02:42:34.764Z,12.70
2023-09-21T02:43:09.701Z,16.27
2023-09-21T02:43:42.375Z,9.63
2023-09-21T02:44:15.358Z,11.38
2023-09-21T02:44:47.859Z,8.50
2023-09-21T02:45:25.346Z,11.90
2023-09-21T02:45:57.828Z,17.52
2023-09-21T02:46:30.986Z,16.23
2023-09-21T02:47:03.940Z,12.90
2023-09-21T02:47:36.378Z,16.50
2023-09-21T02:48:09.705Z,19.43
2023-09-21T02:48:44.508Z,10.07
2023-09-21T02:49:17.194Z,15.77
2023-09-21T02:49:49.953Z,17.17
2023-09-21T02:50:29.274Z,15.05
2023-09-21T02:51:03.815Z,16.30
2023-09-21T02:51:36.312Z,13.60
2023-09-21T02:52:08.685Z,10.13
2023-09-21T02:52:44.257Z,8.95
2023-09-21T02:53:17.293Z,6.20
2023-09-21T02:53:49.931Z,6.13
2023-09-21T02:54:23.609Z,5.35
2023-09-21T02:54:56.050Z,6.03
2023-09-21T02:55:29.043Z,5.65
2023-09-21T02:56:03.564Z,6.20
2023-09-21T02:56:35.989Z,7.22
2023-09-21T02:57:08.814Z,8.15
2023-09-21T02:57:43.102Z,6.90
2023-09-21T02:58:15.725Z,9.60
2023-09-21T02:59:07.287Z,10.75
2023-09-21T02:59:39.861Z,21.00
2023-09-21T03:00:15.557Z,20.77
2023-09-21T03:00:48.165Z,19.45
2023-09-21T03:01:21.650Z,14.02
2023-09-21T03:01:55.742Z,11.75
2023-09-21T03:02:30.513Z,16.38
2023-09-21T03:03:07.119Z,12.07
2023-09-21T03:03:43.549Z,21.15
2023-09-21T03:04:16.056Z,24.45
2023-09-21T03:04:50.132Z,18.98
2023-09-21T03:05:23.395Z,20.07
2023-09-21T03:05:56.415Z,22.55
2023-09-21T03:06:29.085Z,20.77
2023-09-21T03:07:01.508Z,27.58
2023-09-21T03:07:34.637Z,21.00
2023-09-21T03:08:14.515Z,20.42
2023-09-21T03:08:50.855Z,21.92
2023-09-21T03:09:24.129Z,21.30
2023-09-21T03:09:56.519Z,17.58
2023-09-21T03:10:28.851Z,16.63
2023-09-21T03:11:01.520Z,21.00
2023-09-21T03:11:33.803Z,7.07
2023-09-21T03:12:06.422Z,6.22
2023-09-21T03:12:39.317Z,6.10
2023-09-21T03:13:21.369Z,5.60
2023-09-21T03:13:55.274Z,5.00
2023-09-21T03:14:29.861Z,5.47
2023-09-21T03:15:02.240Z,7.32
2023-09-21T03:15:38.067Z,13.85
2023-09-21T03:16:14.826Z,13.95
2023-09-21T03:16:48.742Z,20.87
2023-09-21T03:17:21.123Z,19.58
2023-09-21T03:17:57.014Z,24.23
2023-09-21T03:18:30.677Z,30.77
2023-09-21T03:19:04.114Z,30.98
2023-09-21T03:19:36.547Z,34.58
2023-09-21T03:20:13.264Z,31.98
2023-09-21T03:20:46.847Z,36.13
2023-09-21T03:21:20.115Z,28.23
2023-09-21T03:21:52.429Z,12.80
2023-09-21T03:22:24.830Z,20.00
2023-09-21T03:22:57.613Z,29.27
2023-09-21T03:23:31.412Z,28.92
2023-09-21T03:24:04.461Z,24.15
2023-09-21T03:24:38.794Z,24.33
2023-09-21T03:25:13.054Z,27.60
2023-09-21T03:25:49.203Z,28.67
2023-09-21T03:26:25.066Z,18.77
2023-09-21T03:26:58.749Z,14.68
2023-09-21T03:27:31.545Z,16.10
2023-09-21T03:28:11.730Z,12.30
2023-09-21T03:28:46.036Z,26.00
2023-09-21T03:29:18.584Z,21.48
2023-09-21T03:29:51.776Z,20.15
2023-09-21T03:30:28.375Z,20.27
2023-09-21T03:31:01.254Z,20.08
2023-09-21T03:31:33.909Z,24.83
2023-09-21T03:32:06.225Z,26.52
2023-09-21T03:32:40.594Z,25.00
2023-09-21T03:33:13.474Z,26.13
2023-09-21T03:33:48.487Z,19.47
2023-09-21T03:34:22.156Z,24.40
2023-09-21T03:34:54.725Z,19.08
2023-09-21T03:35:28.648Z,14.60
2023-09-21T03:36:02.786Z,14.27
2023-09-21T03:36:39.715Z,11.80
2023-09-21T03:37:12.823Z,9.13
2023-09-21T03:37:49.351Z,10.70
2023-09-21T03:38:22.050Z,8.32
2023-09-21T03:38:56.768Z,12.80
2023-09-21T03:39:29.256Z,20.10
2023-09-21T03:40:01.678Z,23.73
2023-09-21T03:40:34.496Z,28.58
2023-09-21T03:41:06.862Z,31.80
2023-09-21T03:41:40.228Z,33.47
2023-09-21T03:42:12.863Z,33.63
2023-09-21T03:42:46.184Z,33.15
2023-09-21T03:43:20.364Z,34.92
2023-09-21T03:43:53.387Z,30.98
2023-09-21T03:44:26.044Z,31.98
2023-09-21T03:44:58.446Z,34.60
2023-09-21T03:45:30.836Z,38.30
2023-09-21T03:46:03.424Z,37.83
2023-09-21T03:46:35.797Z,43.25
2023-09-21T03:47:12.579Z,39.70
2023-09-21T03:47:45.047Z,31.20
2023-09-21T03:48:17.934Z,30.15
2023-09-21T03:48:51.670Z,31.88
2023-09-21T03:49:24.121Z,29.70
2023-09-21T03:49:57.510Z,25.30
2023-09-21T03:50:30.809Z,33.30
2023-09-21T03:51:04.605Z,34.05
2023-09-21T03:51:37.869Z,31.33
2023-09-21T03:52:11.385Z,31.40
2023-09-21T03:52:43.842Z,30.63
2023-09-21T03:53:16.566Z,31.30
2023-09-21T03:53:49.084Z,30.02
2023-09-21T03:54:21.788Z,24.08
2023-09-21T03:54:54.194Z,20.80
2023-09-21T03:55:26.882Z,25.48
2023-09-21T03:55:59.624Z,33.83
2023-09-21T03:56:31.914Z,31.95
2023-09-21T03:57:06.058Z,37.25
2023-09-21T03:57:39.180Z,32.05
2023-09-21T03:58:13.715Z,20.05
2023-09-21T03:58:46.026Z,23.60
2023-09-21T03:59:19.167Z,30.52
2023-09-21T03:59:51.502Z,34.20
2023-09-21T04:00:27.243Z,37.78
2023-09-21T04:01:05.969Z,39.42
2023-09-21T04:01:38.704Z,37.97
2023-09-21T04:02:11.089Z,36.67
2023-09-21T04:02:46.540Z,36.97
2023-09-21T04:03:19.304Z,30.38
2023-09-21T04:04:07.351Z,32.95
2023-09-21T04:04:40.175Z,33.38
2023-09-21T04:05:20.269Z,34.25
2023-09-21T04:05:53.618Z,34.17
2023-09-21T04:06:26.433Z,38.92
2023-09-21T04:06:58.798Z,37.65
2023-09-21T04:07:31.160Z,34.50
2023-09-21T04:08:04.129Z,32.22
2023-09-21T04:08:36.910Z,25.00
2023-09-21T04:09:09.296Z,31.33
2023-09-21T04:09:42.053Z,34.65
2023-09-21T04:10:14.468Z,39.55
2023-09-21T04:10:46.792Z,36.65
2023-09-21T04:11:19.096Z,37.88
2023-09-21T04:11:51.878Z,34.03
2023-09-21T04:12:24.211Z,31.70
2023-09-21T04:12:56.878Z,37.10
2023-09-21T04:13:29.784Z,36.00
2023-09-21T04:14:16.420Z,38.75
2023-09-21T04:14:52.919Z,42.10
2023-09-21T04:15:29.148Z,43.15
2023-09-21T04:16:07.172Z,42.60
2023-09-21T04:16:39.638Z,40.72
2023-09-21T04:17:13.541Z,44.22
2023-09-21T04:17:46.040Z,48.20
2023-09-21T04:18:18.756Z,36.03
2023-09-21T04:18:51.258Z,43.70
2023-09-21T04:19:24.812Z,44.63
2023-09-21T04:19:57.194Z,45.83
2023-09-21T04:20:32.982Z,52.40
2023-09-21T04:21:19.022Z,51.65
2023-09-21T04:21:52.716Z,79.68
2023-09-21T04:22:25.124Z,67.97
2023-09-21T04:22:57.717Z,80.82
2023-09-21T04:23:30.547Z,65.57
2023-09-21T04:24:04.194Z,66.88
2023-09-21T04:24:36.671Z,56.63
2023-09-21T04:25:10.243Z,50.08
2023-09-21T04:25:45.688Z,49.22
2023-09-21T04:26:19.894Z,54.50
2023-09-21T04:26:53.384Z,43.70
2023-09-21T04:27:27.536Z,42.92
2023-09-21T04:27:59.846Z,44.72
2023-09-21T04:28:32.490Z,46.80
2023-09-21T04:29:06.613Z,49.95
2023-09-21T04:29:39.397Z,52.03
2023-09-21T04:30:15.886Z,51.20
2023-09-21T04:30:49.675Z,44.88
2023-09-21T04:31:22.042Z,46.00
2023-09-21T04:31:54.456Z,45.20
2023-09-21T04:32:27.539Z,47.22
2023-09-21T04:33:00.082Z,48.38
2023-09-21T04:33:34.983Z,42.42
2023-09-21T04:34:07.414Z,40.25
2023-09-21T04:34:39.868Z,37.85
2023-09-21T04:35:12.408Z,37.33
2023-09-21T04:35:44.961Z,35.90
2023-09-21T04:36:17.416Z,35.78
2023-09-21T04:36:49.796Z,34.03
2023-09-21T04:37:22.209Z,31.80
2023-09-21T04:37:58.103Z,32.67
2023-09-21T04:38:30.570Z,30.90
2023-09-21T04:39:03.188Z,31.73
2023-09-21T04:39:35.710Z,32.58
2023-09-21T04:40:12.620Z,32.17
2023-09-21T04:40:49.421Z,33.97
2023-09-21T04:41:22.516Z,32.57
2023-09-21T04:41:54.880Z,33.63
2023-09-21T04:42:28.955Z,34.00
2023-09-21T04:43:01.470Z,31.27
2023-09-21T04:43:33.965Z,28.85
2023-09-21T04:44:06.592Z,31.23
2023-09-21T04:44:39.990Z,34.17
2023-09-21T04:45:13.104Z,31.42
2023-09-21T04:45:49.044Z,30.00
2023-09-21T04:46:21.736Z,29.67
2023-09-21T04:46:55.590Z,27.50
2023-09-21T04:47:29.139Z,29.02
2023-09-21T04:48:05.568Z,28.02
2023-09-21T04:48:40.785Z,27.83
2023-09-21T04:49:13.194Z,27.85
2023-09-21T04:49:46.980Z,29.23
2023-09-21T04:50:19.572Z,31.85
2023-09-21T04:50:52.527Z,31.73
2023-09-21T04:51:25.310Z,33.40
2023-09-21T04:51:57.919Z,30.50
2023-09-21T04:52:32.127Z,31.53
2023-09-21T04:53:05.397Z,33.55
2023-09-21T04:53:38.384Z,32.17
2023-09-21T04:54:10.753Z,32.15
2023-09-21T04:54:49.541Z,35.97
2023-09-21T04:55:22.145Z,36.05
2023-09-21T04:55:54.508Z,38.33
2023-09-21T04:56:27.896Z,35.78
2023-09-21T04:57:00.398Z,28.08
2023-09-21T04:57:33.043Z,32.17
2023-09-21T04:58:05.566Z,30.40
2023-09-21T04:58:38.429Z,27.65
2023-09-21T04:59:10.857Z,31.35
2023-09-21T04:59:43.541Z,30.58
2023-09-21T05:00:17.807Z,23.33
2023-09-21T05:00:51.852Z,25.20
2023-09-21T05:01:25.594Z,32.83
2023-09-21T05:01:58.022Z,37.42
2023-09-21T05:02:31.627Z,42.05
2023-09-21T05:03:04.534Z,37.45
2023-09-21T05:03:40.804Z,39.13
2023-09-21T05:04:14.317Z,35.08
2023-09-21T05:04:47.386Z,38.05
2023-09-21T05:05:20.128Z,40.78
2023-09-21T05:05:54.310Z,38.35
2023-09-21T05:06:27.476Z,40.85
2023-09-21T05:07:00.048Z,44.83
2023-09-21T05:07:32.528Z,44.85
2023-09-21T05:08:05.342Z,46.50
2023-09-21T05:08:38.071Z,38.88
2023-09-21T05:09:11.785Z,32.70
2023-09-21T05:09:47.158Z,41.47
2023-09-21T05:10:19.674Z,42.85
2023-09-21T05:10:51.977Z,44.28
2023-09-21T05:11:24.614Z,45.38
2023-09-21T05:11:58.407Z,39.45
2023-09-21T05:12:30.756Z,41.40
2023-09-21T05:13:03.714Z,45.95
2023-09-21T05:13:36.433Z,44.55
2023-09-21T05:14:09.734Z,48.78
2023-09-21T05:14:42.337Z,41.80
2023-09-21T05:15:16.499Z,43.72
2023-09-21T05:15:49.568Z,43.53
2023-09-21T05:16:21.909Z,40.42
2023-09-21T05:16:58.306Z,40.78
2023-09-21T05:17:32.892Z,35.22
2023-09-21T05:18:07.172Z,41.30
2023-09-21T05:18:39.565Z,36.30
2023-09-21T05:19:14.064Z,37.88
2023-09-21T05:19:46.393Z,43.10
2023-09-21T05:20:18.961Z,43.57
2023-09-21T05:20:51.783Z,41.05
2023-09-21T05:21:24.162Z,39.50
2023-09-21T05:21:58.138Z,38.22
2023-09-21T05:22:31.371Z,32.33
2023-09-21T05:23:06.059Z,42.13
2023-09-21T05:23:38.457Z,41.95
2023-09-21T05:24:11.657Z,47.20
2023-09-21T05:24:45.218Z,39.00
2023-09-21T05:25:17.661Z,27.17
2023-09-21T05:25:50.070Z,35.30
2023-09-21T05:26:22.506Z,28.92
2023-09-21T05:26:55.054Z,29.33
2023-09-21T05:27:30.806Z,42.72
2023-09-21T05:28:03.285Z,29.17
2023-09-21T05:28:35.921Z,27.85
2023-09-21T05:29:08.217Z,33.17
2023-09-21T05:29:41.471Z,44.20
2023-09-21T05:30:15.897Z,28.80
2023-09-21T05:30:48.423Z,24.17
2023-09-21T05:31:20.771Z,29.83
2023-09-21T05:31:53.168Z,35.60
2023-09-21T05:32:25.786Z,35.30
2023-09-21T05:32:59.128Z,35.58
2023-09-21T05:33:32.702Z,43.13
2023-09-21T05:34:05.639Z,44.47
2023-09-21T05:34:38.144Z,44.40
2023-09-21T05:35:16.846Z,40.03
2023-09-21T05:35:52.676Z,39.42
2023-09-21T05:36:25.246Z,42.05
2023-09-21T05:36:57.614Z,43.03
2023-09-21T05:37:30.677Z,42.17
2023-09-21T05:38:06.553Z,43.35
2023-09-21T05:38:38.930Z,40.63
2023-09-21T05:39:11.465Z,34.60
2023-09-21T05:39:43.812Z,35.42
2023-09-21T05:40:16.301Z,30.27
2023-09-21T05:40:48.750Z,31.02
2023-09-21T05:41:21.182Z,24.40
2023-09-21T05:41:53.584Z,23.00
2023-09-21T05:42:26.126Z,25.40
2023-09-21T05:42:58.669Z,25.92
2023-09-21T05:43:31.428Z,26.35
2023-09-21T05:44:03.777Z,29.33
2023-09-21T05:44:36.924Z,30.40
2023-09-21T05:45:09.557Z,27.00
2023-09-21T05:45:42.178Z,24.77
2023-09-21T05:46:14.584Z,26.40
2023-09-21T05:46:46.960Z,31.48
2023-09-21T05:47:19.454Z,25.75
2023-09-21T05:47:52.347Z,23.13
2023-09-21T05:48:24.877Z,27.17
2023-09-21T05:48:57.497Z,27.58
2023-09-21T05:49:30.049Z,25.98
2023-09-21T05:50:02.662Z,27.60
2023-09-21T05:50:37.076Z,24.48
2023-09-21T05:51:11.429Z,24.00
2023-09-21T05:51:45.732Z,24.70
2023-09-21T05:52:20.241Z,34.47
2023-09-21T05:52:52.953Z,30.33
2023-09-21T05:53:25.292Z,33.77
2023-09-21T05:53:58.679Z,29.17
2023-09-21T05:54:31.164Z,32.00
2023-09-21T05:55:04.438Z,33.65
2023-09-21T05:55:37.480Z,36.88
2023-09-21T05:56:09.840Z,36.95
2023-09-21T05:56:42.978Z,40.38
2023-09-21T05:57:15.625Z,41.58
2023-09-21T05:57:49.306Z,41.53
2023-09-21T05:58:21.689Z,41.03
2023-09-21T05:58:54.105Z,33.40
2023-09-21T05:59:27.194Z,34.53
2023-09-21T05:59:59.552Z,39.65
2023-09-21T06:00:32.648Z,34.20
2023-09-21T06:01:05.072Z,32.20
2023-09-21T06:01:37.440Z,29.98
2023-09-21T06:02:15.408Z,35.20
2023-09-21T06:02:48.127Z,37.55
2023-09-21T06:03:20.951Z,33.72
2023-09-21T06:03:54.004Z,30.60
2023-09-21T06:04:27.384Z,33.97
2023-09-21T06:04:59.812Z,50.45
2023-09-21T06:05:33.076Z,39.05
2023-09-21T06:06:09.255Z,38.72
2023-09-21T06:06:42.145Z,37.33
2023-09-21T06:07:15.763Z,44.38
2023-09-21T06:07:48.085Z,35.20
2023-09-21T06:08:21.398Z,29.77
2023-09-21T06:08:53.909Z,38.53
2023-09-21T06:09:26.443Z,31.13
2023-09-21T06:09:58.879Z,30.73
2023-09-21T06:10:31.961Z,36.92
2023-09-21T06:11:05.352Z,33.60
2023-09-21T06:11:37.867Z,34.60
2023-09-21T06:12:12.467Z,38.28
2023-09-21T06:12:45.359Z,45.47
2023-09-21T06:13:17.797Z,44.45
2023-09-21T06:13:50.490Z,29.92
2023-09-21T06:14:23.220Z,41.53
2023-09-21T06:14:57.559Z,31.08
2023-09-21T06:15:30.251Z,35.83
2023-09-21T06:16:04.427Z,36.58
2023-09-21T06:16:36.770Z,34.28
2023-09-21T06:17:11.651Z,30.33
2023-09-21T06:17:45.201Z,32.58
2023-09-21T06:18:19.801Z,31.73
2023-09-21T06:18:52.309Z,37.78
2023-09-21T06:19:25.094Z,39.28
2023-09-21T06:19:57.373Z,38.13
2023-09-21T06:20:30.566Z,44.40
2023-09-21T06:21:03.871Z,35.77
2023-09-21T06:21:37.167Z,46.13
2023-09-21T06:22:12.789Z,31.83
2023-09-21T06:22:45.312Z,34.03
2023-09-21T06:23:18.865Z,12.20
2023-09-21T06:23:52.200Z,16.10
2023-09-21T06:24:26.368Z,24.45
2023-09-21T06:24:59.188Z,27.73
2023-09-21T06:25:31.868Z,11.55
2023-09-21T06:26:04.789Z,22.35
2023-09-21T06:26:37.654Z,21.90
2023-09-21T06:27:10.037Z,33.63
2023-09-21T06:27:43.346Z,34.63
2023-09-21T06:28:17.119Z,45.88
2023-09-21T06:28:49.981Z,17.60
2023-09-21T06:29:24.215Z,17.58
2023-09-21T06:29:56.621Z,14.98
2023-09-21T06:30:28.950Z,22.00
2023-09-21T06:31:05.804Z,9.35
2023-09-21T06:31:38.293Z,18.40
2023-09-21T06:32:13.903Z,22.67
2023-09-21T06:32:48.921Z,18.70
2023-09-21T06:33:25.967Z,19.50
2023-09-21T06:34:01.107Z,29.33
2023-09-21T06:34:34.583Z,22.98
2023-09-21T06:35:09.000Z,17.85
2023-09-21T06:35:43.627Z,13.35
2023-09-21T06:36:22.055Z,9.95
2023-09-21T06:36:55.458Z,20.05
2023-09-21T06:37:32.449Z,9.95
2023-09-21T06:38:05.049Z,20.90
2023-09-21T06:38:37.739Z,8.60
2023-09-21T06:39:11.308Z,15.63
2023-09-21T06:39:43.660Z,15.00
2023-09-21T06:40:16.024Z,17.45
2023-09-21T06:40:48.315Z,23.75
2023-09-21T06:41:21.101Z,16.88
2023-09-21T06:41:53.526Z,22.38
2023-09-21T06:42:26.345Z,14.77
2023-09-21T06:42:58.830Z,17.38
2023-09-21T06:43:32.082Z,25.93
2023-09-21T06:44:04.734Z,23.67
2023-09-21T06:44:38.365Z,16.85
2023-09-21T06:45:11.203Z,20.30
2023-09-21T06:45:43.927Z,12.45
2023-09-21T06:46:16.599Z,10.32
2023-09-21T06:46:48.981Z,11.90
2023-09-21T06:47:23.290Z,7.95
2023-09-21T06:47:55.781Z,6.78
2023-09-21T06:48:28.260Z,11.65
2023-09-21T06:49:10.636Z,13.20
2023-09-21T06:49:45.110Z,15.43
2023-09-21T06:50:17.455Z,26.63
2023-09-21T06:50:49.879Z,25.30
2023-09-21T06:51:22.327Z,28.05
2023-09-21T06:51:55.537Z,23.42
2023-09-21T06:52:29.951Z,44.45
2023-09-21T06:53:02.519Z,27.52
2023-09-21T06:53:37.667Z,16.67
2023-09-21T06:54:10.055Z,33.55
2023-09-21T06:54:42.523Z,42.57
2023-09-21T06:55:16.736Z,56.05
2023-09-21T06:55:49.041Z,41.38
2023-09-21T06:56:22.916Z,36.60
2023-09-21T06:56:56.351Z,49.58
2023-09-21T06:57:30.348Z,41.50
2023-09-21T06:58:02.710Z,19.83
2023-09-21T06:58:36.735Z,40.72
2023-09-21T06:59:09.149Z,44.85
2023-09-21T06:59:43.378Z,59.97
2023-09-21T07:00:16.917Z,39.13
2023-09-21T07:00:50.093Z,37.53
2023-09-21T07:01:23.796Z,45.67
2023-09-21T07:01:56.325Z,35.10
2023-09-21T07:02:47.756Z,38.53
2023-09-21T07:03:20.881Z,50.08
2023-09-21T07:03:53.746Z,52.97
2023-09-21T07:04:29.501Z,37.58
2023-09-21T07:05:02.051Z,16.75
2023-09-21T07:05:34.510Z,18.98
2023-09-21T07:06:07.081Z,20.40
2023-09-21T07:06:40.941Z,13.98
2023-09-21T07:07:17.275Z,18.17
2023-09-21T07:07:50.271Z,13.40
2023-09-21T07:08:22.938Z,9.13
2023-09-21T07:08:55.321Z,10.75
2023-09-21T07:09:27.629Z,10.48
2023-09-21T07:10:01.788Z,19.15
2023-09-21T07:10:34.145Z,6.57
2023-09-21T07:11:07.364Z,9.98
2023-09-21T07:11:39.753Z,15.17
2023-09-21T07:12:12.497Z,13.75
2023-09-21T07:12:46.464Z,8.90
2023-09-21T07:13:21.547Z,10.68
2023-09-21T07:13:54.299Z,28.05
2023-09-21T07:14:27.506Z,6.68
2023-09-21T07:15:00.571Z,9.50
2023-09-21T07:15:33.081Z,19.77